createdAt,value
2023-04-07T00:01:48.209Z,101411.16
2023-04-07T00:04:14.952Z,101412.03
2023-04-07T00:06:43.462Z,101416.50
2023-04-07T00:09:11.298Z,101402.25
2023-04-07T00:11:37.868Z,101413.84
2023-04-07T00:14:04.714Z,101412.06
2023-04-07T00:16:31.272Z,101415.56
2023-04-07T00:18:57.833Z,101419.16
2023-04-07T00:21:24.419Z,101407.59
2023-04-07T00:23:51.145Z,101406.72
2023-04-07T00:26:17.793Z,101409.38
2023-04-07T00:28:44.378Z,101413.78
2023-04-07T00:31:11.079Z,101415.59
2023-04-07T00:33:37.695Z,101415.56
2023-04-07T00:36:04.586Z,101420.06
2023-04-07T00:38:31.191Z,101417.41
2023-04-07T00:41:01.191Z,101406.72
2023-04-07T00:43:27.766Z,101415.59
2023-04-07T00:45:54.833Z,101419.13
2023-04-07T00:48:21.725Z,101415.56
2023-04-07T00:50:48.325Z,101409.34
2023-04-07T00:53:15.692Z,101415.59
2023-04-07T00:55:42.414Z,101413.78
2023-04-07T00:58:09.538Z,101412.03
2023-04-07T01:00:42.365Z,101411.13
2023-04-07T01:03:26.719Z,101419.13
2023-04-07T01:05:56.481Z,101409.34
2023-04-07T01:09:07.637Z,101413.81
2023-04-07T01:11:44.463Z,101412.00
2023-04-07T01:14:12.189Z,101415.56
2023-04-07T01:16:51.970Z,101408.47
2023-04-07T01:19:34.021Z,101413.78
2023-04-07T01:22:01.283Z,101413.81
2023-04-07T01:24:58.002Z,101406.69
2023-04-07T01:27:27.646Z,101412.00
2023-04-07T01:29:54.778Z,101410.25
2023-04-07T01:32:22.117Z,101407.56
2023-04-07T01:34:50.759Z,101404.88
2023-04-07T01:37:17.810Z,101408.47
2023-04-07T01:39:44.805Z,101412.00
2023-04-07T01:42:11.983Z,101415.56
2023-04-07T01:44:38.663Z,101410.25
2023-04-07T01:47:06.186Z,101412.03
2023-04-07T01:49:34.051Z,101415.56
2023-04-07T01:52:00.784Z,101412.03
2023-04-07T01:54:27.764Z,101407.56
2023-04-07T01:56:54.384Z,101406.66
2023-04-07T01:59:21.675Z,101412.00
2023-04-07T02:01:48.652Z,101405.78
2023-04-07T02:04:37.585Z,101412.03
2023-04-07T02:07:09.684Z,101404.91
2023-04-07T02:09:38.961Z,101408.47
2023-04-07T02:12:06.608Z,101412.03
2023-04-07T02:14:33.502Z,101404.91
2023-04-07T02:17:01.498Z,101404.00
2023-04-07T02:19:30.362Z,101405.78
2023-04-07T02:21:57.274Z,101408.47
2023-04-07T02:24:23.844Z,101406.69
2023-04-07T02:26:50.568Z,101408.44
2023-04-07T02:29:17.168Z,101404.00
2023-04-07T02:31:43.828Z,101411.13
2023-04-07T02:34:10.542Z,101415.59
2023-04-07T02:36:37.111Z,101408.47
2023-04-07T02:39:03.830Z,101412.00
2023-04-07T02:41:30.483Z,101411.13
2023-04-07T02:43:57.438Z,101419.13
2023-04-07T02:46:24.307Z,101414.69
2023-04-07T02:48:51.819Z,101415.56
2023-04-07T02:51:18.395Z,101412.88
2023-04-07T02:53:44.954Z,101413.78
2023-04-07T02:56:11.539Z,101415.56
2023-04-07T02:58:38.125Z,101418.22
2023-04-07T03:01:05.338Z,101417.34
2023-04-07T03:03:32.012Z,101421.78
2023-04-07T03:05:58.744Z,101421.81
2023-04-07T03:08:25.708Z,101422.72
2023-04-07T03:10:52.332Z,101421.81
2023-04-07T03:13:19.764Z,101424.47
2023-04-07T03:15:47.364Z,101429.81
2023-04-07T03:18:13.946Z,101427.16
2023-04-07T03:20:42.380Z,101429.81
2023-04-07T03:23:08.994Z,101428.03
2023-04-07T03:25:35.780Z,101425.38
2023-04-07T03:28:02.360Z,101426.25
2023-04-07T03:30:28.995Z,101431.59
2023-04-07T03:32:55.691Z,101428.00
2023-04-07T03:35:22.265Z,101424.47
2023-04-07T03:37:48.881Z,101427.13
2023-04-07T03:40:15.556Z,101426.25
2023-04-07T03:42:43.397Z,101433.34
2023-04-07T03:45:10.026Z,101438.69
2023-04-07T03:47:37.105Z,101434.25
2023-04-07T03:50:03.817Z,101433.34
2023-04-07T03:52:30.375Z,101434.28
2023-04-07T03:54:56.961Z,101440.50
2023-04-07T03:57:23.553Z,101436.94
2023-04-07T03:59:51.316Z,101441.41
2023-04-07T04:02:18.655Z,101442.28
2023-04-07T04:04:45.384Z,101445.84
2023-04-07T04:07:12.039Z,101458.31
2023-04-07T04:09:38.600Z,101452.06
2023-04-07T04:12:05.554Z,101452.97
2023-04-07T04:14:32.209Z,101460.97
2023-04-07T04:16:58.801Z,101460.97
2023-04-07T04:19:26.282Z,101458.28
2023-04-07T04:21:52.844Z,101468.09
2023-04-07T04:24:19.408Z,101468.06
2023-04-07T04:26:45.960Z,101475.19
2023-04-07T04:29:12.533Z,101474.31
2023-04-07T04:31:39.138Z,101472.53
2023-04-07T04:34:05.762Z,101466.28
2023-04-07T04:36:32.337Z,101474.34
2023-04-07T04:38:58.901Z,101478.75
2023-04-07T04:41:25.607Z,101479.66
2023-04-07T04:43:52.180Z,101490.34
2023-04-07T04:46:18.727Z,101483.22
2023-04-07T04:48:45.361Z,101488.53
2023-04-07T04:51:11.963Z,101486.75
2023-04-07T04:53:38.553Z,101487.63
2023-04-07T04:56:05.536Z,101485.84
2023-04-07T04:58:32.343Z,101490.31
2023-04-07T05:01:00.414Z,101488.56
2023-04-07T05:03:28.677Z,101488.56
2023-04-07T05:05:55.501Z,101490.31
2023-04-07T05:08:22.115Z,101498.34
2023-04-07T05:10:48.725Z,101501.03
2023-04-07T05:13:15.513Z,101506.31
2023-04-07T05:15:42.824Z,101511.69
2023-04-07T05:18:09.436Z,101500.13
2023-04-07T05:20:36.011Z,101512.56
2023-04-07T05:23:03.090Z,101509.88
2023-04-07T05:25:29.674Z,101524.16
2023-04-07T05:27:58.479Z,101520.53
2023-04-07T05:30:25.514Z,101525.00
2023-04-07T05:32:53.191Z,101524.13
2023-04-07T05:35:19.826Z,101525.00
2023-04-07T05:37:46.646Z,101526.78
2023-04-07T05:40:13.299Z,101540.16
2023-04-07T05:42:39.843Z,101538.38
2023-04-07T05:45:07.048Z,101542.81
2023-04-07T05:47:33.648Z,101544.59
2023-04-07T05:50:00.995Z,101548.16
2023-04-07T05:52:27.614Z,101543.69
2023-04-07T05:54:54.155Z,101541.91
2023-04-07T05:57:21.423Z,101547.25
2023-04-07T05:59:47.971Z,101549.94
2023-04-07T06:02:14.661Z,101557.06
2023-04-07T06:04:41.511Z,101558.84
2023-04-07T06:07:08.105Z,101561.56
2023-04-07T06:09:34.694Z,101566.94
2023-04-07T06:12:01.793Z,101553.59
2023-04-07T06:14:28.404Z,101561.63
2023-04-07T06:16:55.002Z,101561.63
2023-04-07T06:19:21.600Z,101560.78
2023-04-07T06:21:48.358Z,101573.28
2023-04-07T06:24:14.902Z,101577.75
2023-04-07T06:26:41.607Z,101573.28
2023-04-07T06:29:08.202Z,101580.44
2023-04-07T06:31:34.902Z,101583.13
2023-04-07T06:34:01.508Z,101584.00
2023-04-07T06:36:29.120Z,101580.44
2023-04-07T06:38:56.224Z,101579.53
2023-04-07T06:41:22.809Z,101588.44
2023-04-07T06:43:51.431Z,101592.91
2023-04-07T06:46:18.686Z,101592.03
2023-04-07T06:48:45.749Z,101597.38
2023-04-07T06:51:12.516Z,101596.47
2023-04-07T06:53:39.063Z,101593.81
2023-04-07T06:56:10.570Z,101599.16
2023-04-07T06:58:37.743Z,101606.31
2023-04-07T07:01:05.173Z,101606.31
2023-04-07T07:03:32.651Z,101608.97
2023-04-07T07:06:00.044Z,101613.44
2023-04-07T07:08:27.536Z,101614.34
2023-04-07T07:10:54.367Z,101611.66
2023-04-07T07:13:23.515Z,101623.25
2023-04-07T07:15:50.978Z,101625.94
2023-04-07T07:18:18.280Z,101617.00
2023-04-07T07:20:45.533Z,101623.22
2023-04-07T07:23:12.143Z,101624.13
2023-04-07T07:25:38.836Z,101629.50
2023-04-07T07:28:05.391Z,101627.69
2023-04-07T07:30:32.029Z,101641.09
2023-04-07T07:32:58.626Z,101641.97
2023-04-07T07:35:25.474Z,101654.47
2023-04-07T07:37:52.345Z,101647.31
2023-04-07T07:40:19.278Z,101651.81
2023-04-07T07:42:47.240Z,101655.34
2023-04-07T07:45:14.120Z,101653.56
2023-04-07T07:47:41.899Z,101657.13
2023-04-07T07:50:08.981Z,101658.94
2023-04-07T07:52:37.107Z,101654.47
2023-04-07T07:55:04.039Z,101666.94
2023-04-07T07:57:31.936Z,101663.41
2023-04-07T07:59:58.564Z,101668.75
2023-04-07T08:02:30.849Z,101667.84
2023-04-07T08:04:57.944Z,101670.53
2023-04-07T08:07:24.627Z,101681.22
2023-04-07T08:09:52.815Z,101679.44
2023-04-07T08:12:19.393Z,101683.91
2023-04-07T08:14:46.303Z,101683.00
2023-04-07T08:17:12.947Z,101682.09
2023-04-07T08:19:39.727Z,101686.56
2023-04-07T08:22:06.475Z,101688.34
2023-04-07T08:24:33.061Z,101690.13
2023-04-07T08:26:59.718Z,101703.53
2023-04-07T08:29:26.327Z,101703.50
2023-04-07T08:31:52.980Z,101716.00
2023-04-07T08:34:21.216Z,101713.31
2023-04-07T08:36:48.201Z,101718.66
2023-04-07T08:39:14.774Z,101716.88
2023-04-07T08:41:42.441Z,101715.13
2023-04-07T08:44:10.566Z,101722.25
2023-04-07T08:46:39.856Z,101716.91
2023-04-07T08:49:10.599Z,101716.91
2023-04-07T08:51:38.217Z,101724.03
2023-04-07T08:54:11.923Z,101724.94
2023-04-07T08:56:41.235Z,101732.09
2023-04-07T08:59:09.707Z,101732.09
2023-04-07T09:01:39.421Z,101732.97
2023-04-07T09:04:07.564Z,101734.75
2023-04-07T09:06:35.491Z,101741.91
2023-04-07T09:09:02.784Z,101745.47
2023-04-07T09:11:30.461Z,101750.84
2023-04-07T09:13:57.293Z,101749.06
2023-04-07T09:16:24.125Z,101741.03
2023-04-07T09:18:50.748Z,101749.09
2023-04-07T09:21:17.313Z,101745.50
2023-04-07T09:23:43.888Z,101752.63
2023-04-07T09:26:24.468Z,101754.44
2023-04-07T09:29:03.042Z,101752.66
2023-04-07T09:31:57.764Z,101749.09
2023-04-07T09:34:30.220Z,101759.78
2023-04-07T09:36:57.706Z,101756.19
2023-04-07T09:39:24.913Z,101761.56
2023-04-07T09:41:52.123Z,101758.88
2023-04-07T09:44:19.683Z,101756.22
2023-04-07T09:46:58.806Z,101758.88
2023-04-07T09:49:26.217Z,101761.56
2023-04-07T09:51:58.028Z,101763.38
2023-04-07T09:54:36.552Z,101766.00
2023-04-07T09:57:04.811Z,101766.94
2023-04-07T09:59:32.319Z,101757.13
2023-04-07T10:02:01.980Z,101765.13
2023-04-07T10:04:29.616Z,101766.94
2023-04-07T10:06:56.972Z,101770.47
2023-04-07T10:09:24.954Z,101766.94
2023-04-07T10:11:52.968Z,101774.06
2023-04-07T10:14:23.376Z,101770.50
2023-04-07T10:16:51.913Z,101772.25
2023-04-07T10:19:19.252Z,101779.44
2023-04-07T10:21:46.505Z,101768.72
2023-04-07T10:24:42.354Z,101778.50
2023-04-07T10:27:12.153Z,101783.00
2023-04-07T10:29:42.891Z,101782.97
2023-04-07T10:32:09.765Z,101782.09
2023-04-07T10:34:48.747Z,101788.34
2023-04-07T10:37:17.812Z,101799.06
2023-04-07T10:39:44.427Z,101800.84
2023-04-07T10:42:41.546Z,101806.22
2023-04-07T10:45:09.565Z,101808.88
2023-04-07T10:47:59.220Z,101806.19
2023-04-07T10:50:26.047Z,101806.19
2023-04-07T10:53:12.325Z,101807.09
2023-04-07T10:55:39.674Z,101806.19
2023-04-07T10:58:24.724Z,101808.91
2023-04-07T11:00:57.084Z,101817.81
2023-04-07T11:03:24.983Z,101815.13
2023-04-07T11:05:51.631Z,101815.13
2023-04-07T11:08:34.452Z,101816.03
2023-04-07T11:11:00.985Z,101824.06
2023-04-07T11:13:27.577Z,101815.13
2023-04-07T11:15:54.369Z,101822.28
2023-04-07T11:18:21.910Z,101819.59
2023-04-07T11:20:50.737Z,101820.50
2023-04-07T11:23:18.520Z,101821.38
2023-04-07T11:25:46.781Z,101820.50
2023-04-07T11:28:14.114Z,101820.50
2023-04-07T11:30:52.810Z,101821.41
2023-04-07T11:33:25.212Z,101828.53
2023-04-07T11:36:00.031Z,101822.28
2023-04-07T11:38:31.306Z,101830.28
2023-04-07T11:40:57.904Z,101835.66
2023-04-07T11:43:27.098Z,101825.84
2023-04-07T11:46:10.760Z,101832.09
2023-04-07T11:48:38.237Z,101833.00
2023-04-07T11:51:05.129Z,101833.00
2023-04-07T11:53:37.960Z,101840.13
2023-04-07T11:56:09.525Z,101836.56
2023-04-07T11:58:37.098Z,101839.22
2023-04-07T12:01:06.883Z,101838.34
2023-04-07T12:03:35.473Z,101845.47
2023-04-07T12:06:05.420Z,101850.88
2023-04-07T12:08:39.184Z,101847.28
2023-04-07T12:11:06.202Z,101852.63
2023-04-07T12:13:32.812Z,101849.06
2023-04-07T12:16:00.049Z,101848.19
2023-04-07T12:18:27.153Z,101848.16
2023-04-07T12:20:53.950Z,101852.66
2023-04-07T12:23:20.556Z,101850.84
2023-04-07T12:25:47.239Z,101855.28
2023-04-07T12:28:13.835Z,101854.44
2023-04-07T12:30:40.407Z,101846.38
2023-04-07T12:33:07.247Z,101857.06
2023-04-07T12:35:33.901Z,101843.69
2023-04-07T12:38:00.490Z,101856.22
2023-04-07T12:40:27.234Z,101861.56
2023-04-07T12:42:53.866Z,101857.09
2023-04-07T12:45:20.588Z,101866.06
2023-04-07T12:47:47.486Z,101859.78
2023-04-07T12:50:14.320Z,101859.75
2023-04-07T12:52:41.135Z,101850.81
2023-04-07T12:55:08.420Z,101866.00
2023-04-07T12:57:35.016Z,101861.50
2023-04-07T13:00:01.696Z,101859.66
2023-04-07T13:02:28.356Z,101856.06
2023-04-07T13:04:55.031Z,101855.16
2023-04-07T13:07:22.245Z,101851.53
2023-04-07T13:09:48.852Z,101865.84
2023-04-07T13:12:15.519Z,101859.59
2023-04-07T13:14:52.885Z,101856.00
2023-04-07T13:17:23.967Z,101864.94
2023-04-07T13:19:53.176Z,101866.69
2023-04-07T13:22:22.122Z,101875.63
2023-04-07T13:24:50.913Z,101874.75
2023-04-07T13:27:17.525Z,101879.19
2023-04-07T13:29:44.144Z,101870.25
2023-04-07T13:32:13.084Z,101875.59
2023-04-07T13:34:40.058Z,101881.84
2023-04-07T13:37:09.705Z,101877.41
2023-04-07T13:39:36.274Z,101877.44
2023-04-07T13:42:02.909Z,101884.56
2023-04-07T13:44:29.528Z,101892.63
2023-04-07T13:46:56.822Z,101882.81
2023-04-07T13:49:23.477Z,101881.91
2023-04-07T13:51:50.051Z,101881.03
2023-04-07T13:54:18.587Z,101889.09
2023-04-07T13:56:45.210Z,101881.97
2023-04-07T13:59:12.167Z,101885.53
2023-04-07T14:01:39.476Z,101885.56
2023-04-07T14:04:06.894Z,101882.88
2023-04-07T14:06:33.798Z,101891.81
2023-04-07T14:09:00.384Z,101895.38
2023-04-07T14:11:27.218Z,101891.81
2023-04-07T14:13:56.684Z,101893.56
2023-04-07T14:16:23.507Z,101894.47
2023-04-07T14:18:51.578Z,101893.59
2023-04-07T14:21:18.156Z,101897.16
2023-04-07T14:23:44.715Z,101900.72
2023-04-07T14:26:11.994Z,101897.09
2023-04-07T14:28:39.176Z,101895.34
2023-04-07T14:31:06.097Z,101899.78
2023-04-07T14:33:32.853Z,101902.50
2023-04-07T14:35:59.490Z,101898.91
2023-04-07T14:38:26.267Z,101906.97
2023-04-07T14:40:53.053Z,101906.94
2023-04-07T14:43:19.659Z,101901.63
2023-04-07T14:45:46.251Z,101904.28
2023-04-07T14:48:13.695Z,101907.88
2023-04-07T14:50:40.494Z,101906.97
2023-04-07T14:53:07.107Z,101898.91
2023-04-07T14:55:34.404Z,101907.84
2023-04-07T14:58:00.995Z,101916.81
2023-04-07T15:00:28.795Z,101908.78
2023-04-07T15:02:55.894Z,101920.38
2023-04-07T15:05:23.065Z,101913.22
2023-04-07T15:07:52.790Z,101914.16
2023-04-07T15:10:20.373Z,101916.84
2023-04-07T15:12:47.464Z,101918.59
2023-04-07T15:15:14.163Z,101915.88
2023-04-07T15:17:44.408Z,101919.47
2023-04-07T15:20:13.079Z,101925.72
2023-04-07T15:22:40.265Z,101932.88
2023-04-07T15:25:07.087Z,101930.19
2023-04-07T15:27:33.678Z,101926.59
2023-04-07T15:30:00.714Z,101926.59
2023-04-07T15:32:27.410Z,101930.16
2023-04-07T15:34:54.008Z,101930.16
2023-04-07T15:37:20.603Z,101933.78
2023-04-07T15:39:48.164Z,101923.91
2023-04-07T15:42:14.792Z,101936.47
2023-04-07T15:44:41.370Z,101928.38
2023-04-07T15:47:08.387Z,101931.09
2023-04-07T15:49:37.234Z,101941.84
2023-04-07T15:52:06.756Z,101939.13
2023-04-07T15:54:33.441Z,101936.44
2023-04-07T15:57:00.139Z,101943.59
2023-04-07T15:59:29.343Z,101947.16
2023-04-07T16:01:56.047Z,101945.38
2023-04-07T16:04:22.819Z,101948.97
2023-04-07T16:06:49.387Z,101956.13
2023-04-07T16:09:16.368Z,101951.66
2023-04-07T16:11:42.940Z,101955.25
2023-04-07T16:14:09.516Z,101948.06
2023-04-07T16:16:37.040Z,101948.97
2023-04-07T16:19:03.735Z,101949.88
2023-04-07T16:21:31.413Z,101957.91
2023-04-07T16:23:57.979Z,101954.31
2023-04-07T16:26:24.691Z,101963.28
2023-04-07T16:28:51.330Z,101965.03
2023-04-07T16:31:17.943Z,101961.47
2023-04-07T16:33:44.551Z,101961.47
2023-04-07T16:36:11.195Z,101965.94
2023-04-07T16:38:37.807Z,101971.31
2023-04-07T16:41:07.353Z,101965.91
2023-04-07T16:43:33.916Z,101975.78
2023-04-07T16:46:00.677Z,101982.94
2023-04-07T16:48:27.429Z,101986.56
2023-04-07T16:50:53.987Z,101991.03
2023-04-07T16:53:21.544Z,101992.81
2023-04-07T16:55:48.448Z,102000.84
2023-04-07T16:58:18.994Z,101998.13
2023-04-07T17:00:45.879Z,102004.41
2023-04-07T17:03:14.837Z,101999.03
2023-04-07T17:05:41.537Z,102008.00
2023-04-07T17:08:08.088Z,101994.59
2023-04-07T17:10:34.640Z,102006.22
2023-04-07T17:13:01.260Z,102009.78
2023-04-07T17:15:27.817Z,102015.16
2023-04-07T17:17:54.789Z,102015.16
2023-04-07T17:20:22.694Z,102023.22
2023-04-07T17:22:49.399Z,102025.91
2023-04-07T17:25:18.744Z,102021.44
2023-04-07T17:27:47.757Z,102024.13
2023-04-07T17:30:14.416Z,102039.34
2023-04-07T17:32:42.505Z,102040.22
2023-04-07T17:35:09.373Z,102040.22
2023-04-07T17:37:36.203Z,102049.16
2023-04-07T17:40:02.797Z,102049.16
2023-04-07T17:42:29.404Z,102055.44
2023-04-07T17:44:56.831Z,102057.22
2023-04-07T17:47:24.299Z,102061.72
2023-04-07T17:49:50.853Z,102057.25
2023-04-07T17:52:17.681Z,102067.09
2023-04-07T17:54:44.278Z,102069.78
2023-04-07T17:57:11.581Z,102072.47
2023-04-07T17:59:38.198Z,102076.06
2023-04-07T18:02:09.095Z,102074.25
2023-04-07T18:04:37.361Z,102073.38
2023-04-07T18:07:04.921Z,102086.78
2023-04-07T18:09:32.532Z,102088.56
2023-04-07T18:12:01.190Z,102093.94
2023-04-07T18:14:28.163Z,102091.25
2023-04-07T18:16:55.661Z,102095.72
2023-04-07T18:19:23.060Z,102105.56
2023-04-07T18:21:52.919Z,102107.38
2023-04-07T18:24:20.649Z,102110.94
2023-04-07T18:26:47.856Z,102119.91
2023-04-07T18:29:14.875Z,102129.75
2023-04-07T18:31:45.130Z,102122.59
2023-04-07T18:34:12.320Z,102134.22
2023-04-07T18:36:41.116Z,102126.16
2023-04-07T18:39:07.864Z,102144.94
2023-04-07T18:41:34.859Z,102149.44
2023-04-07T18:44:01.495Z,102152.13
2023-04-07T18:46:28.343Z,102153.03
2023-04-07T18:48:55.009Z,102163.78
2023-04-07T18:51:21.892Z,102163.75
2023-04-07T18:53:48.731Z,102178.06
2023-04-07T18:56:15.743Z,102177.19
2023-04-07T18:58:45.052Z,102188.81
2023-04-07T19:01:13.271Z,102188.81
2023-04-07T19:03:40.822Z,102195.09
2023-04-07T19:06:08.019Z,102196.00
2023-04-07T19:08:35.628Z,102204.03
2023-04-07T19:11:02.231Z,102206.72
2023-04-07T19:13:28.775Z,102217.47
2023-04-07T19:15:55.763Z,102221.00
2023-04-07T19:18:22.415Z,102219.22
2023-04-07T19:20:49.003Z,102221.88
2023-04-07T19:23:15.640Z,102226.38
2023-04-07T19:25:45.057Z,102237.09
2023-04-07T19:28:12.287Z,102228.16
2023-04-07T19:30:38.841Z,102225.44
2023-04-07T19:33:05.614Z,102231.72
2023-04-07T19:35:32.959Z,102235.28
2023-04-07T19:37:59.643Z,102240.66
2023-04-07T19:40:26.304Z,102240.69
2023-04-07T19:42:54.772Z,102237.09
2023-04-07T19:45:21.557Z,102239.75
2023-04-07T19:47:48.396Z,102246.03
2023-04-07T19:50:15.041Z,102244.25
2023-04-07T19:52:43.555Z,102244.25
2023-04-07T19:55:10.906Z,102249.59
2023-04-07T19:57:38.404Z,102248.69
2023-04-07T20:00:05.335Z,102251.38
2023-04-07T20:02:32.128Z,102239.72
2023-04-07T20:04:58.800Z,102246.00
2023-04-07T20:07:25.392Z,102250.47
2023-04-07T20:09:54.009Z,102247.75
2023-04-07T20:12:20.918Z,102253.13
2023-04-07T20:14:47.447Z,102257.59
2023-04-07T20:17:13.994Z,102259.38
2023-04-07T20:19:41.733Z,102260.25
2023-04-07T20:22:08.859Z,102261.16
2023-04-07T20:24:35.909Z,102271.03
2023-04-07T20:27:02.851Z,102264.72
2023-04-07T20:29:29.412Z,102267.41
2023-04-07T20:31:56.017Z,102271.84
2023-04-07T20:34:22.698Z,102278.13
2023-04-07T20:36:49.331Z,102275.41
2023-04-07T20:39:16.573Z,102276.31
2023-04-07T20:41:45.066Z,102279.81
2023-04-07T20:44:12.179Z,102282.53
2023-04-07T20:46:38.836Z,102281.59
2023-04-07T20:49:07.764Z,102281.53
2023-04-07T20:51:36.705Z,102277.03
2023-04-07T20:54:03.872Z,102284.16
2023-04-07T20:56:30.444Z,102282.38
2023-04-07T20:58:57.030Z,102285.03
2023-04-07T21:01:23.660Z,102286.81
2023-04-07T21:03:50.321Z,102285.03
2023-04-07T21:06:16.931Z,102292.16
2023-04-07T21:08:43.497Z,102295.69
2023-04-07T21:11:10.310Z,102292.13
2023-04-07T21:13:36.904Z,102288.53
2023-04-07T21:16:05.094Z,102301.03
2023-04-07T21:18:32.024Z,102297.44
2023-04-07T21:20:59.837Z,102295.66
2023-04-07T21:23:26.497Z,102308.13
2023-04-07T21:25:53.051Z,102297.41
2023-04-07T21:28:19.609Z,102305.44
2023-04-07T21:30:46.257Z,102307.25
2023-04-07T21:33:14.155Z,102306.28
2023-04-07T21:35:40.836Z,102302.72
2023-04-07T21:38:07.482Z,102308.97
2023-04-07T21:40:34.023Z,102309.81
2023-04-07T21:43:00.698Z,102316.13
2023-04-07T21:45:28.021Z,102313.41
2023-04-07T21:47:54.759Z,102317.00
2023-04-07T21:50:21.355Z,102314.31
2023-04-07T21:52:50.693Z,102322.31
2023-04-07T21:55:18.847Z,102324.06
2023-04-07T21:57:45.582Z,102321.38
2023-04-07T22:00:14.006Z,102318.66
2023-04-07T22:02:40.719Z,102320.50
2023-04-07T22:05:07.688Z,102317.78
2023-04-07T22:07:34.252Z,102322.31
2023-04-07T22:10:01.297Z,102325.78
2023-04-07T22:12:27.854Z,102326.66
2023-04-07T22:14:54.397Z,102325.00
2023-04-07T22:17:21.039Z,102330.31
2023-04-07T22:19:47.603Z,102328.50
2023-04-07T22:22:14.141Z,102338.31
2023-04-07T22:24:41.071Z,102331.25
2023-04-07T22:27:07.689Z,102328.50
2023-04-07T22:29:34.253Z,102342.69
2023-04-07T22:32:01.157Z,102340.88
2023-04-07T22:34:27.737Z,102336.44
2023-04-07T22:36:54.568Z,102342.72
2023-04-07T22:39:21.238Z,102347.22
2023-04-07T22:41:47.798Z,102347.16
2023-04-07T22:44:14.348Z,102347.16
2023-04-07T22:46:41.063Z,102359.72
2023-04-07T22:49:07.721Z,102360.50
2023-04-07T22:51:34.319Z,102361.47
2023-04-07T22:54:00.955Z,102361.41
2023-04-07T22:56:27.658Z,102364.06
2023-04-07T22:58:54.230Z,102367.75
2023-04-07T23:01:21.033Z,102369.41
2023-04-07T23:03:47.747Z,102377.44
2023-04-07T23:06:14.404Z,102381.00
2023-04-07T23:08:40.951Z,102374.81
2023-04-07T23:11:10.461Z,102379.13
2023-04-07T23:13:38.071Z,102368.44
2023-04-07T23:16:06.339Z,102381.91
2023-04-07T23:18:33.192Z,102385.47
2023-04-07T23:20:59.814Z,102384.59
2023-04-07T23:23:27.117Z,102386.28
2023-04-07T23:25:53.667Z,102390.59
2023-04-07T23:28:20.366Z,102390.59
2023-04-07T23:30:47.002Z,102395.97
2023-04-07T23:33:14.110Z,102394.97
2023-04-07T23:35:40.882Z,102402.22
2023-04-07T23:38:09.331Z,102398.53
2023-04-07T23:40:35.938Z,102394.97
2023-04-07T23:43:02.662Z,102398.53
2023-04-07T23:45:29.381Z,102398.47
2023-04-07T23:47:56.081Z,102403.81
2023-04-07T23:50:23.032Z,102404.81
2023-04-07T23:52:49.605Z,102400.31
2023-04-07T23:55:16.353Z,102410.84
2023-04-07T23:57:42.954Z,102408.25
